Portada
METAR-TAF:

METAR-TAF

Aeroports :

Agartala, Índia

latitud: 23-53-24N, longitud: 91-14-32E, altitud: 14 m

Observació

L'informe es va fer fa 6 hores i 30 minuts, a les 11:00 UTC
Vent 16 kt del Oest/Sud-Oest amb ràfegues de 26 kt
Temperatura 33°C
Humitat 59%
Pressió 1007 hPa
Visibilitat: 3000 m
Núvols disperses a una alçada de 1800 ft
Núvols disperses a una alçada de 2500 ft
Escasses núvols a una alçada de 3000 ft, Cumulonimbus.
Cel ennuvolat a una alçada de 10000 ft
tempesta, pluja

METAR: VEAT 031100Z 24016G26KT 3000 -TSRA SCT018 SCT025 FEW030CB BKN100 33/24 Q1007 TEMPO 1500 -TSRA

Hora: 23:00 (17:30 UTC)

Pronòstic

L'informe es va fer fa 3 hores i 30 minuts, a les 14:00 UTC
Pronòstic vàlid del 03 a les 15 UTC al 03 a les 24 UTC
Vent 3 kt del Sud/Sud-Est
Visibilitat: 4000 m
Escasses núvols a una alçada de 2000 ft
calitja
Evolucionant progressivament
l' 03 a les 18 UTC al 03 a les 21 UTC
Visibilitat: 3000 m
boirina

TAF: VEAT 031400Z 0315/0324 16003KT 4000 HZ FEW020 BECMG 0318/0321 3000 BR

Observacions i pronòstics meteorològics de més de 4000 aeroports (METAR i TAF).

Les estacions disponibles són els punts grocs i vermells al mapa.

Posi el ratolí al punt desitjat per veure el nom de l'estació.

Feu clic per veure les observacions i els pronòstics meteorològics.

Per canviar el mapa: feu clic els botons verds amb una creu de color negre per apropar; al botó verd amb un guió per allunyar la imatge; o en les fletxes verdes per a mapes adjacents.


METAR-TAF: